Terminal Aerodrome Forecast
Issued by NWS

Home | Current Version | Previous Version | Text Only | Print | Product List | Glossary On
Versions: 1 2 3 4 5 6 7 8 9 10 11 12 13 14 15
000
FTUS44 KLIX 181309 AAA
TAFHUM
TAF AMD
KHUM 181309Z 1813/1912 16004KT 2SM BR OVC001
     FM181400 16004KT 3SM BR VCSH BKN005
     FM181800 03004KT 5SM BR VCSH BKN008 OVC025
     FM182100 08004KT P6SM BKN010 OVC025
     FM182200 08004KT P6SM BKN008 BKN020
     FM190000 VRB03KT 1SM BR BKN003 BKN020=

USA.gov is the U.S. government's official web portal to all federal, state and local government web resources and services.